createdAt,value
2019-01-14T00:00:07.837Z,984.21
2019-01-14T00:01:07.914Z,984.39
2019-01-14T00:02:07.733Z,984.35
2019-01-14T00:03:07.844Z,984.56
2019-01-14T00:04:07.719Z,984.42
2019-01-14T00:05:07.776Z,984.46
2019-01-14T00:06:10.323Z,984.47
2019-01-14T00:07:07.770Z,984.55
2019-01-14T00:08:07.757Z,984.59
2019-01-14T00:09:07.741Z,984.62
2019-01-14T00:10:07.740Z,984.52
2019-01-14T00:11:07.774Z,984.71
2019-01-14T00:12:07.768Z,984.58
2019-01-14T00:13:07.881Z,984.60
2019-01-14T00:14:07.807Z,984.58
2019-01-14T00:15:07.802Z,984.79
2019-01-14T00:16:07.807Z,984.72
2019-01-14T00:17:07.814Z,984.85
2019-01-14T00:18:07.799Z,984.97
2019-01-14T00:19:07.818Z,985.00
2019-01-14T00:20:07.785Z,984.83
2019-01-14T00:21:07.819Z,985.11
2019-01-14T00:22:07.815Z,985.27
2019-01-14T00:23:07.795Z,984.95
2019-01-14T00:24:07.802Z,984.92
2019-01-14T00:25:07.819Z,984.96
2019-01-14T00:26:07.822Z,984.95
2019-01-14T00:27:07.876Z,985.03
2019-01-14T00:28:07.825Z,985.07
2019-01-14T00:29:07.861Z,985.05
2019-01-14T00:30:07.868Z,985.27
2019-01-14T00:31:07.878Z,985.16
2019-01-14T00:32:07.828Z,985.15
2019-01-14T00:33:07.868Z,985.18
2019-01-14T00:34:07.860Z,985.05
2019-01-14T00:35:07.880Z,985.14
2019-01-14T00:36:07.862Z,984.95
2019-01-14T00:37:07.964Z,985.10
2019-01-14T00:38:07.912Z,984.91
2019-01-14T00:39:07.879Z,985.06
2019-01-14T00:40:07.878Z,985.11
2019-01-14T00:41:07.944Z,985.17
2019-01-14T00:42:07.887Z,985.15
2019-01-14T00:43:07.905Z,985.05
2019-01-14T00:44:07.899Z,985.24
2019-01-14T00:45:07.913Z,985.16
2019-01-14T00:46:07.912Z,985.09
2019-01-14T00:47:07.913Z,985.16
2019-01-14T00:48:08.168Z,985.35
2019-01-14T00:49:07.934Z,985.36
2019-01-14T00:50:08.801Z,985.49
2019-01-14T00:51:07.924Z,985.40
2019-01-14T00:52:07.914Z,985.37
2019-01-14T00:53:07.917Z,985.33
2019-01-14T00:54:07.930Z,985.49
2019-01-14T00:55:07.967Z,985.54
2019-01-14T00:56:07.988Z,985.50
2019-01-14T00:57:07.941Z,985.54
2019-01-14T00:58:07.942Z,985.49
2019-01-14T00:59:08.049Z,985.57
2019-01-14T01:00:07.978Z,985.54
2019-01-14T01:01:08.009Z,985.65
2019-01-14T01:02:07.980Z,985.66
2019-01-14T01:03:07.975Z,985.81
2019-01-14T01:04:08.019Z,985.77
2019-01-14T01:05:07.965Z,985.67
2019-01-14T01:06:07.993Z,985.85
2019-01-14T01:07:07.985Z,985.76
2019-01-14T01:08:07.987Z,985.54
2019-01-14T01:09:07.974Z,985.92
2019-01-14T01:10:08.090Z,985.72
2019-01-14T01:11:08.028Z,985.78
2019-01-14T01:12:08.016Z,985.89
2019-01-14T01:13:08.012Z,985.93
2019-01-14T01:14:08.040Z,985.83
2019-01-14T01:15:08.048Z,985.90
2019-01-14T01:16:08.081Z,985.97
2019-01-14T01:17:08.035Z,985.94
2019-01-14T01:18:08.055Z,986.08
2019-01-14T01:19:08.034Z,986.03
2019-01-14T01:20:08.048Z,986.09
2019-01-14T01:21:08.053Z,986.06
2019-01-14T01:22:08.060Z,986.05
2019-01-14T01:23:08.058Z,986.05
2019-01-14T01:24:08.074Z,986.21
2019-01-14T01:25:08.044Z,986.21
2019-01-14T01:26:08.045Z,986.13
2019-01-14T01:27:08.052Z,986.27
2019-01-14T01:28:08.106Z,986.22
2019-01-14T01:29:08.048Z,986.35
2019-01-14T01:30:08.055Z,986.32
2019-01-14T01:31:08.075Z,986.35
2019-01-14T01:32:08.131Z,986.23
2019-01-14T01:33:08.078Z,986.25
2019-01-14T01:34:08.140Z,986.38
2019-01-14T01:35:08.089Z,986.37
2019-01-14T01:36:08.193Z,986.36
2019-01-14T01:37:08.099Z,986.33
2019-01-14T01:38:08.103Z,986.38
2019-01-14T01:39:08.165Z,986.44
2019-01-14T01:40:08.119Z,986.50
2019-01-14T01:41:08.099Z,986.53
2019-01-14T01:42:08.123Z,986.65
2019-01-14T01:43:08.099Z,986.58
2019-01-14T01:44:08.120Z,986.61
2019-01-14T01:45:08.205Z,986.59
2019-01-14T01:46:08.173Z,986.69
2019-01-14T01:47:08.127Z,986.68
2019-01-14T01:48:08.150Z,986.68
2019-01-14T01:49:08.140Z,986.83
2019-01-14T01:50:08.140Z,986.64
2019-01-14T01:51:08.156Z,986.92
2019-01-14T01:52:08.237Z,986.90
2019-01-14T01:53:08.140Z,986.97
2019-01-14T01:54:08.150Z,987.07
2019-01-14T01:55:08.201Z,987.19
2019-01-14T01:56:08.163Z,987.08
2019-01-14T01:57:08.180Z,986.97
2019-01-14T01:58:08.204Z,987.12
2019-01-14T01:59:08.202Z,987.01
2019-01-14T02:00:08.177Z,987.28
2019-01-14T02:01:08.178Z,987.19
2019-01-14T02:02:08.218Z,987.24
2019-01-14T02:03:08.193Z,987.31
2019-01-14T02:04:08.189Z,987.23
2019-01-14T02:05:08.198Z,987.27
2019-01-14T02:06:08.227Z,987.24
2019-01-14T02:07:08.239Z,987.26
2019-01-14T02:08:08.223Z,987.27
2019-01-14T02:09:08.224Z,987.32
2019-01-14T02:10:08.208Z,987.36
2019-01-14T02:11:08.202Z,987.31
2019-01-14T02:12:08.229Z,987.45
2019-01-14T02:13:08.232Z,987.33
2019-01-14T02:14:08.258Z,987.60
2019-01-14T02:15:08.227Z,987.51
2019-01-14T02:16:08.238Z,987.44
2019-01-14T02:17:08.227Z,987.63
2019-01-14T02:18:08.256Z,987.50
2019-01-14T02:19:08.261Z,987.60
2019-01-14T02:20:08.261Z,987.53
2019-01-14T02:21:08.247Z,987.62
2019-01-14T02:22:08.255Z,987.77
2019-01-14T02:23:08.267Z,987.69
2019-01-14T02:24:08.304Z,987.70
2019-01-14T02:25:08.270Z,987.85
2019-01-14T02:26:08.281Z,987.68
2019-01-14T02:27:08.307Z,987.82
2019-01-14T02:28:08.270Z,987.76
2019-01-14T02:29:08.303Z,987.71
2019-01-14T02:30:08.332Z,987.70
2019-01-14T02:31:08.278Z,987.76
2019-01-14T02:32:08.289Z,987.76
2019-01-14T02:33:08.292Z,987.81
2019-01-14T02:34:08.317Z,987.69
2019-01-14T02:35:08.303Z,987.76
2019-01-14T02:36:08.334Z,987.80
2019-01-14T02:37:08.303Z,987.87
2019-01-14T02:38:08.319Z,987.90
2019-01-14T02:39:08.328Z,987.94
2019-01-14T02:40:08.331Z,987.98
2019-01-14T02:41:08.343Z,988.06
2019-01-14T02:42:08.348Z,987.87
2019-01-14T02:43:08.325Z,988.05
2019-01-14T02:44:08.332Z,988.00
2019-01-14T02:45:08.338Z,987.97
2019-01-14T02:46:08.341Z,988.17
2019-01-14T02:47:08.397Z,988.26
2019-01-14T02:48:08.376Z,988.11
2019-01-14T02:49:08.368Z,988.22
2019-01-14T02:50:08.347Z,988.29
2019-01-14T02:51:08.356Z,988.35
2019-01-14T02:52:08.358Z,988.24
2019-01-14T02:53:08.391Z,988.37
2019-01-14T02:54:08.375Z,988.38
2019-01-14T02:55:08.386Z,988.62
2019-01-14T02:56:08.385Z,988.48
2019-01-14T02:57:08.400Z,988.44
2019-01-14T02:58:08.373Z,988.44
2019-01-14T02:59:08.408Z,988.54
2019-01-14T03:00:08.393Z,988.55
2019-01-14T03:01:08.394Z,988.58
2019-01-14T03:02:08.409Z,988.48
2019-01-14T03:03:08.414Z,988.68
2019-01-14T03:04:08.407Z,988.56
2019-01-14T03:05:08.403Z,988.75
2019-01-14T03:06:08.403Z,988.69
2019-01-14T03:07:08.407Z,988.74
2019-01-14T03:08:08.427Z,988.70
2019-01-14T03:09:08.419Z,988.80
2019-01-14T03:10:08.429Z,988.78
2019-01-14T03:11:08.443Z,988.97
2019-01-14T03:12:08.441Z,988.95
2019-01-14T03:13:08.476Z,988.88
2019-01-14T03:14:08.462Z,988.95
2019-01-14T03:15:08.441Z,989.09
2019-01-14T03:16:08.445Z,989.23
2019-01-14T03:17:08.446Z,988.94
2019-01-14T03:18:08.530Z,989.04
2019-01-14T03:19:08.484Z,988.98
2019-01-14T03:20:08.446Z,989.10
2019-01-14T03:21:08.495Z,989.14
2019-01-14T03:22:08.466Z,989.26
2019-01-14T03:23:08.530Z,989.24
2019-01-14T03:24:08.462Z,989.12
2019-01-14T03:25:08.489Z,989.16
2019-01-14T03:26:08.540Z,989.20
2019-01-14T03:27:08.507Z,989.42
2019-01-14T03:28:08.485Z,989.42
2019-01-14T03:29:08.506Z,989.37
2019-01-14T03:30:08.532Z,989.32
2019-01-14T03:31:08.493Z,989.38
2019-01-14T03:32:08.498Z,989.45
2019-01-14T03:33:08.498Z,989.51
2019-01-14T03:34:08.545Z,989.52
2019-01-14T03:35:08.517Z,989.56
2019-01-14T03:36:08.535Z,989.37
2019-01-14T03:37:08.520Z,989.53
2019-01-14T03:38:08.561Z,989.58
2019-01-14T03:39:08.538Z,989.63
2019-01-14T03:40:08.585Z,989.62
2019-01-14T03:41:08.538Z,989.66
2019-01-14T03:42:08.553Z,989.72
2019-01-14T03:43:08.548Z,989.79
2019-01-14T03:44:08.556Z,989.78
2019-01-14T03:45:08.554Z,989.86
2019-01-14T03:46:08.580Z,989.80
2019-01-14T03:47:08.563Z,989.82
2019-01-14T03:48:08.592Z,989.77
2019-01-14T03:49:08.556Z,989.96
2019-01-14T03:50:08.624Z,989.81
2019-01-14T03:51:08.570Z,989.91
2019-01-14T03:52:08.583Z,989.79
2019-01-14T03:53:08.588Z,989.79
2019-01-14T03:54:08.586Z,989.93
2019-01-14T03:55:08.598Z,989.90
2019-01-14T03:56:08.611Z,989.98
2019-01-14T03:57:08.598Z,990.06
2019-01-14T03:58:08.614Z,989.94
2019-01-14T03:59:08.599Z,989.72
2019-01-14T04:00:08.594Z,990.01
2019-01-14T04:01:08.637Z,989.96
2019-01-14T04:02:08.618Z,989.96
2019-01-14T04:03:08.658Z,990.00
2019-01-14T04:04:08.627Z,990.06
2019-01-14T04:05:08.623Z,990.14
2019-01-14T04:06:08.627Z,990.04
2019-01-14T04:07:13.637Z,990.15
2019-01-14T04:08:08.630Z,990.20
2019-01-14T04:09:08.661Z,990.16
2019-01-14T04:10:08.652Z,990.24
2019-01-14T04:11:08.642Z,990.23
2019-01-14T04:12:08.675Z,990.19
2019-01-14T04:13:08.639Z,990.26
2019-01-14T04:14:08.639Z,990.26
2019-01-14T04:15:08.642Z,990.28
2019-01-14T04:16:08.667Z,990.29
2019-01-14T04:17:08.661Z,990.20
2019-01-14T04:18:08.706Z,990.32
2019-01-14T04:19:08.665Z,990.45
2019-01-14T04:20:08.672Z,990.31
2019-01-14T04:21:08.690Z,990.48
2019-01-14T04:22:08.672Z,990.37
2019-01-14T04:23:08.836Z,990.46
2019-01-14T04:24:08.695Z,990.41
2019-01-14T04:25:08.699Z,990.24
2019-01-14T04:26:08.761Z,990.53
2019-01-14T04:27:08.702Z,990.34
2019-01-14T04:28:08.690Z,990.45
2019-01-14T04:29:08.718Z,990.49
2019-01-14T04:30:08.703Z,990.55
2019-01-14T04:31:08.698Z,990.61
2019-01-14T04:32:08.723Z,990.48
2019-01-14T04:33:08.714Z,990.67
2019-01-14T04:34:08.779Z,990.63
2019-01-14T04:35:08.704Z,990.62
2019-01-14T04:36:08.722Z,990.65
2019-01-14T04:37:08.750Z,990.73
2019-01-14T04:38:08.724Z,990.83
2019-01-14T04:39:08.751Z,990.62
2019-01-14T04:40:08.748Z,991.02
2019-01-14T04:41:08.719Z,990.69
2019-01-14T04:42:08.742Z,990.74
2019-01-14T04:43:08.731Z,990.70
2019-01-14T04:44:08.781Z,990.81
2019-01-14T04:45:08.794Z,990.85
2019-01-14T04:46:08.739Z,990.89
2019-01-14T04:47:08.760Z,990.95
2019-01-14T04:48:08.762Z,991.35
2019-01-14T04:49:08.771Z,991.12
2019-01-14T04:50:08.777Z,991.26
2019-01-14T04:51:08.792Z,991.22
2019-01-14T04:52:08.781Z,991.32
2019-01-14T04:53:08.785Z,991.16
2019-01-14T04:54:08.797Z,991.20
2019-01-14T04:55:08.765Z,991.27
2019-01-14T04:56:08.805Z,991.43
2019-01-14T04:57:08.781Z,991.38
2019-01-14T04:58:08.820Z,991.25
2019-01-14T04:59:08.797Z,991.32
2019-01-14T05:00:08.792Z,991.37
2019-01-14T05:01:08.856Z,991.36
2019-01-14T05:02:08.795Z,991.33
2019-01-14T05:03:08.809Z,991.35
2019-01-14T05:04:08.813Z,991.27
2019-01-14T05:05:08.823Z,991.25
2019-01-14T05:06:08.803Z,991.34
2019-01-14T05:07:08.842Z,991.50
2019-01-14T05:08:08.812Z,991.46
2019-01-14T05:09:08.815Z,991.43
2019-01-14T05:10:08.811Z,991.63
2019-01-14T05:11:08.827Z,991.42
2019-01-14T05:12:08.868Z,991.66
2019-01-14T05:13:08.823Z,991.45
2019-01-14T05:14:08.840Z,991.53
2019-01-14T05:15:08.836Z,991.53
2019-01-14T05:16:08.860Z,991.57
2019-01-14T05:17:09.260Z,991.67
2019-01-14T05:18:08.869Z,991.68
2019-01-14T05:19:08.875Z,991.70
2019-01-14T05:20:08.845Z,991.65
2019-01-14T05:21:08.855Z,991.57
2019-01-14T05:22:08.851Z,991.62
2019-01-14T05:23:08.911Z,991.59
2019-01-14T05:24:08.861Z,991.62
2019-01-14T05:25:08.914Z,991.70
2019-01-14T05:26:08.877Z,991.79
2019-01-14T05:27:08.872Z,991.66
2019-01-14T05:28:08.917Z,991.78
2019-01-14T05:29:08.874Z,991.63
2019-01-14T05:30:08.888Z,991.66
2019-01-14T05:31:08.873Z,991.59
2019-01-14T05:32:08.942Z,991.60
2019-01-14T05:33:08.899Z,991.64
2019-01-14T05:34:08.915Z,991.61
2019-01-14T05:35:08.928Z,991.68
2019-01-14T05:36:08.891Z,991.62
2019-01-14T05:37:08.898Z,991.78
2019-01-14T05:38:08.901Z,991.92
2019-01-14T05:39:08.907Z,991.73
2019-01-14T05:40:08.963Z,991.72
2019-01-14T05:41:08.958Z,991.74
2019-01-14T05:42:08.916Z,991.76
2019-01-14T05:43:08.976Z,991.62
2019-01-14T05:44:08.924Z,991.67
2019-01-14T05:45:08.943Z,991.64
2019-01-14T05:46:08.955Z,991.61
2019-01-14T05:47:08.950Z,991.61
2019-01-14T05:48:08.926Z,991.68
2019-01-14T05:49:08.930Z,991.75
2019-01-14T05:50:09.021Z,991.69
2019-01-14T05:51:08.986Z,991.65
2019-01-14T05:52:08.942Z,991.63
2019-01-14T05:53:08.953Z,991.69
2019-01-14T05:54:08.949Z,991.61
2019-01-14T05:55:08.956Z,991.77
2019-01-14T05:56:09.004Z,991.81
2019-01-14T05:57:08.962Z,991.68
2019-01-14T05:58:08.970Z,991.95
2019-01-14T05:59:08.973Z,991.89
2019-01-14T06:00:08.996Z,991.78
2019-01-14T06:01:09.012Z,991.96
2019-01-14T06:02:08.965Z,991.71
2019-01-14T06:03:08.986Z,991.72
2019-01-14T06:04:08.981Z,991.68
2019-01-14T06:05:08.975Z,991.82
2019-01-14T06:06:08.991Z,991.80
2019-01-14T06:07:09.029Z,991.86
2019-01-14T06:08:09.000Z,991.80
2019-01-14T06:09:08.999Z,991.77
2019-01-14T06:10:09.006Z,991.82
2019-01-14T06:11:09.015Z,991.78
2019-01-14T06:12:09.074Z,991.91
2019-01-14T06:13:09.000Z,991.78
2019-01-14T06:14:09.014Z,991.77
2019-01-14T06:15:09.013Z,991.74
2019-01-14T06:16:09.008Z,991.77
2019-01-14T06:17:09.009Z,991.86
2019-01-14T06:18:09.061Z,991.90
2019-01-14T06:19:09.024Z,991.86
2019-01-14T06:20:09.021Z,991.87
2019-01-14T06:21:09.049Z,991.83
2019-01-14T06:22:09.051Z,991.98
2019-01-14T06:23:09.107Z,991.91
2019-01-14T06:24:09.212Z,991.98
2019-01-14T06:25:09.037Z,991.95
2019-01-14T06:26:09.156Z,991.96
2019-01-14T06:27:09.036Z,991.84
2019-01-14T06:28:09.084Z,991.96
2019-01-14T06:29:09.055Z,992.03
2019-01-14T06:30:09.094Z,992.02
2019-01-14T06:31:09.097Z,992.07
2019-01-14T06:32:09.056Z,992.16
2019-01-14T06:33:09.064Z,992.04
2019-01-14T06:34:09.071Z,992.32
2019-01-14T06:35:09.070Z,992.32
2019-01-14T06:36:09.145Z,992.40
2019-01-14T06:37:09.082Z,992.36
2019-01-14T06:38:09.103Z,992.54
2019-01-14T06:39:09.085Z,992.49
2019-01-14T06:40:09.119Z,992.51
2019-01-14T06:41:09.117Z,992.43
2019-01-14T06:42:09.087Z,992.56
2019-01-14T06:43:09.082Z,992.56
2019-01-14T06:44:09.088Z,992.54
2019-01-14T06:45:09.100Z,992.72
2019-01-14T06:46:09.152Z,993.01
2019-01-14T06:47:09.130Z,992.99
2019-01-14T06:48:09.117Z,992.87
2019-01-14T06:49:09.116Z,992.82
2019-01-14T06:50:09.129Z,992.94
2019-01-14T06:51:09.119Z,993.07
2019-01-14T06:52:09.149Z,993.05
2019-01-14T06:53:09.137Z,993.39
2019-01-14T06:54:09.144Z,993.34
2019-01-14T06:55:09.116Z,993.51
2019-01-14T06:56:09.151Z,993.26
2019-01-14T06:57:09.158Z,993.24
2019-01-14T06:58:09.147Z,993.26
2019-01-14T06:59:09.136Z,993.21
2019-01-14T07:00:09.147Z,993.16
2019-01-14T07:01:09.170Z,993.19
2019-01-14T07:02:09.207Z,993.15
2019-01-14T07:03:09.168Z,993.20
2019-01-14T07:04:09.179Z,993.17
2019-01-14T07:05:09.154Z,993.21
2019-01-14T07:06:09.146Z,993.32
2019-01-14T07:07:09.256Z,993.30
2019-01-14T07:08:09.213Z,993.32
2019-01-14T07:09:09.157Z,993.37
2019-01-14T07:10:09.169Z,993.29
2019-01-14T07:11:09.188Z,993.34
2019-01-14T07:12:09.186Z,993.33
2019-01-14T07:13:09.179Z,993.32
2019-01-14T07:14:09.236Z,993.38
2019-01-14T07:15:09.191Z,993.44
2019-01-14T07:16:09.169Z,993.55
2019-01-14T07:17:09.191Z,993.52
2019-01-14T07:18:09.219Z,993.49
2019-01-14T07:19:09.241Z,993.59
2019-01-14T07:20:09.219Z,993.63
2019-01-14T07:21:09.191Z,993.62
2019-01-14T07:22:09.197Z,993.49
2019-01-14T07:23:09.211Z,993.68
2019-01-14T07:24:09.203Z,993.77
2019-01-14T07:25:09.235Z,993.74
2019-01-14T07:26:09.197Z,993.71
2019-01-14T07:27:09.199Z,993.73
2019-01-14T07:28:09.229Z,993.71
2019-01-14T07:29:09.208Z,993.73
2019-01-14T07:30:09.265Z,993.75
2019-01-14T07:31:09.213Z,993.78
2019-01-14T07:32:09.214Z,993.93
2019-01-14T07:33:09.222Z,993.76
2019-01-14T07:34:09.221Z,993.73
2019-01-14T07:35:09.233Z,993.85
2019-01-14T07:36:09.242Z,993.81
2019-01-14T07:37:09.304Z,993.88
2019-01-14T07:38:09.227Z,993.87
2019-01-14T07:39:09.236Z,993.86
2019-01-14T07:40:09.281Z,993.91
2019-01-14T07:41:09.275Z,993.90
2019-01-14T07:42:09.264Z,993.88
2019-01-14T07:43:09.230Z,993.96
2019-01-14T07:44:09.242Z,993.86
2019-01-14T07:45:09.254Z,993.96
2019-01-14T07:46:09.361Z,993.92
2019-01-14T07:47:09.308Z,994.05
2019-01-14T07:48:09.255Z,993.95
2019-01-14T07:49:09.277Z,993.94
2019-01-14T07:50:09.268Z,994.03
2019-01-14T07:51:09.251Z,994.16
2019-01-14T07:52:09.342Z,994.12
2019-01-14T07:53:09.280Z,994.12
2019-01-14T07:54:09.269Z,994.42
2019-01-14T07:55:09.268Z,994.06
2019-01-14T07:56:09.277Z,994.09
2019-01-14T07:57:09.342Z,994.17
2019-01-14T07:58:09.308Z,994.20
2019-01-14T07:59:09.313Z,994.27
2019-01-14T08:00:09.322Z,994.31
2019-01-14T08:01:09.300Z,994.24
2019-01-14T08:02:09.320Z,993.98
2019-01-14T08:03:09.276Z,994.30
2019-01-14T08:04:09.321Z,994.25
2019-01-14T08:05:09.289Z,994.32
2019-01-14T08:06:09.293Z,994.32
2019-01-14T08:07:09.318Z,994.32
2019-01-14T08:08:13.962Z,994.30
2019-01-14T08:09:09.310Z,994.36
2019-01-14T08:10:09.337Z,994.27
2019-01-14T08:11:09.303Z,994.40
2019-01-14T08:12:09.294Z,994.42
2019-01-14T08:13:09.310Z,994.40
2019-01-14T08:14:09.400Z,994.40
2019-01-14T08:15:09.312Z,994.43
2019-01-14T08:16:09.314Z,994.47
2019-01-14T08:17:09.334Z,994.43
2019-01-14T08:18:09.322Z,994.59
2019-01-14T08:19:09.380Z,994.48
2019-01-14T08:20:09.342Z,994.57
2019-01-14T08:21:09.352Z,994.69
2019-01-14T08:22:09.436Z,994.65
2019-01-14T08:23:09.322Z,994.51
2019-01-14T08:24:09.402Z,994.65
2019-01-14T08:25:09.361Z,994.53
2019-01-14T08:26:09.330Z,994.59
2019-01-14T08:27:09.374Z,994.58
2019-01-14T08:28:09.496Z,994.57
2019-01-14T08:29:09.350Z,994.61
2019-01-14T08:30:09.370Z,994.63
2019-01-14T08:31:09.390Z,994.55
2019-01-14T08:32:09.346Z,994.72
2019-01-14T08:33:09.354Z,994.67
2019-01-14T08:34:09.352Z,994.77
2019-01-14T08:35:09.415Z,994.67
2019-01-14T08:36:09.420Z,994.72
2019-01-14T08:37:09.382Z,994.67
2019-01-14T08:38:09.355Z,994.73
2019-01-14T08:39:09.377Z,994.75
2019-01-14T08:40:09.385Z,994.87
2019-01-14T08:41:09.376Z,994.96
2019-01-14T08:42:09.437Z,994.79
2019-01-14T08:43:09.409Z,994.81
2019-01-14T08:44:09.368Z,994.82
2019-01-14T08:45:09.378Z,994.89
2019-01-14T08:46:09.394Z,994.88
2019-01-14T08:47:09.414Z,994.87
2019-01-14T08:48:09.427Z,995.10
2019-01-14T08:49:09.404Z,995.02
2019-01-14T08:50:09.405Z,994.94
2019-01-14T08:51:09.401Z,994.91
2019-01-14T08:52:09.395Z,994.94
2019-01-14T08:53:09.406Z,994.86
2019-01-14T08:54:09.416Z,994.84
2019-01-14T08:55:09.418Z,994.94
2019-01-14T08:56:09.459Z,995.05
2019-01-14T08:57:09.431Z,995.00
2019-01-14T08:58:09.412Z,995.04
2019-01-14T08:59:09.443Z,995.14
2019-01-14T09:00:09.421Z,995.08
2019-01-14T09:01:09.428Z,995.08
2019-01-14T09:02:09.414Z,995.15
2019-01-14T09:03:09.478Z,995.20
2019-01-14T09:04:09.430Z,995.06
2019-01-14T09:05:09.468Z,995.18
2019-01-14T09:06:09.436Z,995.17
2019-01-14T09:07:09.451Z,995.19
2019-01-14T09:08:09.450Z,995.25
2019-01-14T09:09:09.532Z,995.24
2019-01-14T09:10:09.466Z,995.23
2019-01-14T09:11:09.471Z,995.38
2019-01-14T09:12:09.438Z,995.23
2019-01-14T09:13:09.467Z,995.23
2019-01-14T09:14:09.475Z,995.46
2019-01-14T09:15:09.498Z,995.33
2019-01-14T09:16:09.504Z,995.26
2019-01-14T09:17:09.490Z,995.40
2019-01-14T09:18:09.522Z,995.47
2019-01-14T09:19:09.463Z,995.37
2019-01-14T09:20:09.457Z,995.37
2019-01-14T09:21:09.459Z,995.43
2019-01-14T09:22:09.470Z,995.40
2019-01-14T09:23:09.467Z,995.37
2019-01-14T09:24:09.529Z,995.35
2019-01-14T09:25:09.531Z,995.40
2019-01-14T09:26:09.489Z,995.35
2019-01-14T09:27:09.500Z,995.45
2019-01-14T09:28:09.484Z,995.30
2019-01-14T09:29:09.606Z,995.41
2019-01-14T09:30:09.507Z,995.55
2019-01-14T09:31:09.518Z,995.47
2019-01-14T09:32:09.490Z,995.44
2019-01-14T09:33:09.491Z,995.49
2019-01-14T09:34:09.515Z,995.49
2019-01-14T09:35:09.497Z,995.48
2019-01-14T09:36:09.493Z,995.60
2019-01-14T09:37:09.511Z,995.70
2019-01-14T09:38:09.525Z,995.49
2019-01-14T09:39:09.529Z,995.51
2019-01-14T09:40:09.529Z,995.66
2019-01-14T09:41:09.519Z,995.58
2019-01-14T09:42:09.512Z,995.64
2019-01-14T09:43:09.523Z,995.54
2019-01-14T09:44:09.550Z,995.61
2019-01-14T09:45:09.526Z,995.62
2019-01-14T09:46:09.540Z,995.54
2019-01-14T09:47:09.529Z,995.61
2019-01-14T09:48:09.537Z,995.71
2019-01-14T09:49:09.531Z,995.56
2019-01-14T09:50:09.549Z,995.66
2019-01-14T09:51:09.563Z,995.56
2019-01-14T09:52:09.559Z,995.56
2019-01-14T09:53:09.548Z,995.72
2019-01-14T09:54:09.540Z,995.80
2019-01-14T09:55:09.552Z,995.68
2019-01-14T09:56:09.578Z,995.63
2019-01-14T09:57:09.561Z,995.97
2019-01-14T09:58:09.556Z,995.60
2019-01-14T09:59:09.560Z,995.66
2019-01-14T10:00:09.578Z,995.77
2019-01-14T10:01:09.653Z,995.52
2019-01-14T10:02:09.754Z,995.53
2019-01-14T10:03:09.600Z,995.77
2019-01-14T10:04:09.604Z,995.61
2019-01-14T10:05:09.564Z,995.64
2019-01-14T10:06:09.590Z,995.69
2019-01-14T10:07:09.568Z,995.79
2019-01-14T10:08:09.643Z,995.65
2019-01-14T10:09:09.583Z,995.73
2019-01-14T10:10:09.580Z,995.56
2019-01-14T10:11:09.648Z,995.58
2019-01-14T10:12:09.593Z,995.72
2019-01-14T10:13:09.622Z,995.66
2019-01-14T10:14:09.639Z,995.68
2019-01-14T10:15:09.662Z,995.66
2019-01-14T10:16:09.617Z,995.58
2019-01-14T10:17:09.649Z,995.79
2019-01-14T10:18:09.732Z,995.51
2019-01-14T10:19:09.619Z,995.54
2019-01-14T10:20:09.710Z,995.69
2019-01-14T10:21:09.607Z,995.64
2019-01-14T10:22:09.634Z,995.51
2019-01-14T10:23:09.628Z,995.59
2019-01-14T10:24:09.646Z,995.54
2019-01-14T10:25:09.630Z,995.52
2019-01-14T10:26:09.620Z,995.51
2019-01-14T10:27:09.687Z,995.65
2019-01-14T10:28:09.650Z,995.57
2019-01-14T10:29:09.671Z,995.63
2019-01-14T10:30:09.627Z,995.62
2019-01-14T10:31:09.632Z,995.78
2019-01-14T10:32:09.699Z,995.55
2019-01-14T10:33:09.676Z,995.88
2019-01-14T10:34:09.674Z,995.69
2019-01-14T10:35:09.659Z,995.63
2019-01-14T10:36:09.677Z,995.61
2019-01-14T10:37:09.671Z,995.70
2019-01-14T10:38:09.685Z,995.66
2019-01-14T10:39:09.698Z,995.74
2019-01-14T10:40:09.681Z,995.73
2019-01-14T10:41:09.663Z,995.77
2019-01-14T10:42:09.677Z,995.62
2019-01-14T10:43:09.695Z,995.89
2019-01-14T10:44:09.671Z,995.57
2019-01-14T10:45:09.708Z,995.64
2019-01-14T10:46:09.705Z,995.65
2019-01-14T10:47:09.685Z,995.65
2019-01-14T10:48:09.713Z,995.62
2019-01-14T10:49:09.689Z,995.64
2019-01-14T10:50:09.745Z,995.80
2019-01-14T10:51:09.788Z,995.69
2019-01-14T10:52:09.717Z,995.54
2019-01-14T10:53:09.744Z,995.58
2019-01-14T10:54:09.915Z,995.59
2019-01-14T10:55:12.437Z,995.62
2019-01-14T10:56:09.712Z,995.56
2019-01-14T10:57:09.731Z,995.59
2019-01-14T10:58:09.730Z,995.59
2019-01-14T10:59:09.714Z,995.48
2019-01-14T11:00:09.726Z,995.56
2019-01-14T11:01:09.742Z,995.62
2019-01-14T11:02:09.761Z,995.60
2019-01-14T11:03:09.774Z,995.55
2019-01-14T11:04:09.754Z,995.69
2019-01-14T11:05:09.775Z,995.72
2019-01-14T11:06:09.743Z,995.62
2019-01-14T11:07:09.756Z,995.76
2019-01-14T11:08:09.742Z,995.62
2019-01-14T11:09:09.780Z,995.70
2019-01-14T11:10:09.761Z,995.64
2019-01-14T11:11:09.764Z,995.67
2019-01-14T11:12:09.789Z,995.83
2019-01-14T11:13:09.751Z,995.88
2019-01-14T11:14:09.779Z,995.91
2019-01-14T11:15:09.781Z,995.83
2019-01-14T11:16:09.795Z,995.87
2019-01-14T11:17:09.850Z,995.94
2019-01-14T11:18:09.772Z,995.89
2019-01-14T11:19:09.803Z,995.91
2019-01-14T11:20:09.802Z,996.10
2019-01-14T11:21:14.380Z,995.99
2019-01-14T11:22:09.776Z,995.91
2019-01-14T11:23:09.830Z,996.06
2019-01-14T11:24:09.803Z,996.07
2019-01-14T11:25:09.790Z,996.03
2019-01-14T11:26:09.809Z,995.99
2019-01-14T11:27:09.805Z,996.20
2019-01-14T11:28:09.822Z,995.97
2019-01-14T11:29:09.817Z,996.00
2019-01-14T11:30:09.875Z,995.90
2019-01-14T11:31:09.896Z,995.94
2019-01-14T11:32:09.835Z,996.14
2019-01-14T11:33:09.847Z,996.04
2019-01-14T11:34:09.948Z,996.12
2019-01-14T11:35:09.834Z,996.08
2019-01-14T11:36:09.822Z,996.07
2019-01-14T11:37:09.858Z,996.02
2019-01-14T11:38:09.872Z,996.08
2019-01-14T11:39:10.035Z,996.16
2019-01-14T11:40:09.846Z,996.10
2019-01-14T11:41:09.843Z,996.05
2019-01-14T11:42:09.856Z,996.02
2019-01-14T11:43:09.860Z,995.97
2019-01-14T11:44:10.238Z,996.01
2019-01-14T11:45:09.882Z,996.03
2019-01-14T11:46:09.951Z,996.02
2019-01-14T11:47:09.853Z,996.04
2019-01-14T11:48:09.881Z,996.07
2019-01-14T11:49:09.870Z,996.23
2019-01-14T11:50:10.128Z,996.08
2019-01-14T11:51:09.887Z,996.14
2019-01-14T11:52:09.923Z,996.12
2019-01-14T11:53:09.890Z,996.24
2019-01-14T11:54:09.882Z,996.29
2019-01-14T11:55:09.897Z,996.30
2019-01-14T11:56:09.930Z,996.49
2019-01-14T11:57:09.922Z,996.65
2019-01-14T11:58:09.961Z,996.39
2019-01-14T11:59:09.897Z,996.43
2019-01-14T12:00:09.914Z,996.47
2019-01-14T12:01:10.108Z,996.45
2019-01-14T12:02:09.915Z,996.63
2019-01-14T12:03:09.946Z,996.57
2019-01-14T12:04:09.919Z,996.48
2019-01-14T12:05:09.931Z,996.37
2019-01-14T12:06:09.944Z,996.43
2019-01-14T12:07:09.939Z,996.55
2019-01-14T12:08:09.996Z,996.41
2019-01-14T12:09:12.319Z,996.34
2019-01-14T12:10:09.954Z,996.37
2019-01-14T12:11:09.954Z,996.35
2019-01-14T12:12:09.980Z,996.42
2019-01-14T12:13:09.975Z,996.50
2019-01-14T12:14:10.007Z,996.69
2019-01-14T12:15:09.956Z,996.31
2019-01-14T12:16:10.009Z,996.35
2019-01-14T12:17:09.999Z,996.37
2019-01-14T12:18:09.964Z,996.37
2019-01-14T12:19:09.968Z,996.51
2019-01-14T12:20:10.029Z,996.57
2019-01-14T12:21:09.978Z,996.62
2019-01-14T12:22:10.001Z,996.62
2019-01-14T12:23:10.013Z,996.46
2019-01-14T12:24:10.005Z,996.62
2019-01-14T12:25:10.002Z,996.41
2019-01-14T12:26:10.020Z,996.41
2019-01-14T12:27:09.997Z,996.39
2019-01-14T12:28:11.107Z,996.33